Yichang, China
Current Conditions -  °F | °C
As of 6:00 AM on Monday 24 Nov 2014 (Local Time) from ZHHH Reporting Station
Scattered Clouds Scattered Clouds  
Wind Chill: 52°   Ceiling: Unl
Heat Index: 52°   Visibility: 4mi
Dew Point: 50°   Wind: 4mph
Humidity: 94%   Direction: 340°NNW
Pressure: 30.09"   Gusts: NA
Location:  30.7°N, 111.28°E
Report Text: ZHHH 232200Z 34002MPS 290V050 6000 SCT010 11/10 Q1019 NOSIG
Loading
Personal Weather Stations






























Interactive Weather Map New forecast layout! Learn more

10-Day Weather Forecast

Advertisements
Track Severe Weather on mobile